Time;durP1;ratioP1;P1;durP2;ratioP2;P2;SDS_P1;SDS_P2;PMS_P1;PMS_P2;Temp;Humidity;BMP_temperature;BMP_pressure;BME280_temperature;BME280_humidity;BME280_pressure;Samples;Min_cycle;Max_cycle;Signal;HPM_P1;HPM_P2
2023/10/17 00:01:34;;;;;;;12.50;3.83;;;;;;;-145.67;100.00;66521.78;5062323;28;20032;-91
2023/10/17 00:07:02;;;;;;;11.07;3.33;;;;;;;-145.67;100.00;66521.78;5060875;28;20051;-91
2023/10/17 00:09:29;;;;;;;7.28;3.58;;;;;;;-145.67;100.00;66521.78;5063278;28;20107;-90
2023/10/17 00:14:27;;;;;;;11.98;3.75;;;;;;;-145.67;100.00;66521.78;5079872;28;20023;-91
2023/10/17 00:16:57;;;;;;;11.38;3.20;;;;;;;-145.67;100.00;66521.78;5061675;28;20024;-91
2023/10/17 00:19:26;;;;;;;11.27;3.63;;;;;;;-145.67;100.00;66521.78;5079179;28;20052;-90
2023/10/17 00:21:52;;;;;;;15.27;3.85;;;;;;;-145.67;100.00;66521.78;5081051;28;20534;-90
2023/10/17 00:24:23;;;;;;;8.48;3.35;;;;;;;-145.67;100.00;66521.78;5079570;28;20024;-91
2023/10/17 00:26:48;;;;;;;10.23;3.53;;;;;;;-145.67;100.00;66521.78;5079582;28;20027;-91
2023/10/17 00:29:14;;;;;;;10.82;3.60;;;;;;;-145.67;100.00;66521.78;5063231;28;20062;-90
2023/10/17 00:31:41;;;;;;;9.05;3.70;;;;;;;-145.67;100.00;66521.78;5079999;28;20507;-90
2023/10/17 00:34:15;;;;;;;10.73;3.72;;;;;;;-145.67;100.00;66521.78;5077862;28;20046;-89
2023/10/17 00:36:48;;;;;;;9.35;3.05;;;;;;;-145.67;100.00;66521.78;5079411;28;20020;-90
2023/10/17 00:39:30;;;;;;;9.93;3.40;;;;;;;-145.67;100.00;66521.78;5078254;28;20036;-91
2023/10/17 00:44:37;;;;;;;9.40;3.25;;;;;;;-145.67;100.00;66521.78;5079480;28;20097;-90
2023/10/17 00:47:18;;;;;;;9.68;3.00;;;;;;;-145.67;100.00;66521.78;5098528;28;20025;-90
2023/10/17 00:49:44;;;;;;;11.35;3.22;;;;;;;-145.67;100.00;66521.78;5086418;28;20028;-91
2023/10/17 00:52:17;;;;;;;8.15;3.33;;;;;;;-145.67;100.00;66521.78;5078450;28;20107;-90
2023/10/17 00:54:45;;;;;;;8.57;3.50;;;;;;;-145.67;100.00;66521.78;5080021;28;20031;-91
2023/10/17 00:57:13;;;;;;;10.60;3.17;;;;;;;-145.67;100.00;66521.78;5079114;28;20081;-91
2023/10/17 00:59:44;;;;;;;7.28;3.30;;;;;;;-145.67;100.00;66521.78;5063426;28;20024;-90
2023/10/17 01:02:11;;;;;;;9.30;3.00;;;;;;;-145.67;100.00;66521.78;5078594;28;20096;-90
2023/10/17 01:04:44;;;;;;;10.55;3.30;;;;;;;-145.67;100.00;66521.78;5062832;28;20024;-90
2023/10/17 01:07:23;;;;;;;12.00;3.60;;;;;;;-145.67;100.00;66521.78;5063227;28;20050;-91
2023/10/17 01:09:55;;;;;;;6.85;3.08;;;;;;;-145.67;100.00;66521.78;5064531;28;20098;-90
2023/10/17 01:12:27;;;;;;;8.43;2.78;;;;;;;-145.67;100.00;66521.78;5063314;28;20444;-90
2023/10/17 01:14:55;;;;;;;8.13;3.40;;;;;;;-145.67;100.00;66521.78;5080570;28;20081;-91
2023/10/17 01:17:24;;;;;;;10.73;3.58;;;;;;;-145.67;100.00;66521.78;5078231;28;20024;-91
2023/10/17 01:19:53;;;;;;;8.93;3.35;;;;;;;-145.67;100.00;66521.78;5080083;28;20030;-91
2023/10/17 01:22:20;;;;;;;10.40;3.50;;;;;;;-145.67;100.00;66521.78;5071166;28;20020;-90
2023/10/17 01:24:46;;;;;;;7.63;3.10;;;;;;;-145.67;100.00;66521.78;5113933;28;20069;-90
2023/10/17 01:27:15;;;;;;;9.25;2.88;;;;;;;-145.67;100.00;66521.78;5096126;28;20023;-91
2023/10/17 01:29:44;;;;;;;9.98;2.85;;;;;;;-145.67;100.00;66521.78;5080303;28;20039;-90
2023/10/17 01:32:10;;;;;;;6.93;2.90;;;;;;;-145.67;100.00;66521.78;5079892;28;20020;-90
2023/10/17 01:34:36;;;;;;;12.43;3.60;;;;;;;-145.67;100.00;66521.78;5079984;28;20079;-90
2023/10/17 01:37:03;;;;;;;10.38;3.08;;;;;;;-145.67;100.00;66521.78;5079516;28;20039;-90
2023/10/17 01:39:29;;;;;;;8.68;2.88;;;;;;;-145.67;100.00;66521.78;5091260;28;20027;-90
2023/10/17 01:41:55;;;;;;;9.30;3.13;;;;;;;-145.67;100.00;66521.78;5083566;28;20501;-89
2023/10/17 01:44:21;;;;;;;9.77;3.05;;;;;;;-145.67;100.00;66521.78;5094544;28;20051;-90
2023/10/17 01:46:46;;;;;;;10.93;3.50;;;;;;;-145.67;100.00;66521.78;5099862;28;20028;-90
2023/10/17 01:49:12;;;;;;;9.50;3.30;;;;;;;-145.67;100.00;66521.78;5099596;28;20047;-90
2023/10/17 01:51:42;;;;;;;11.20;3.13;;;;;;;-145.67;100.00;66521.78;5068667;28;20038;-90
2023/10/17 01:54:08;;;;;;;13.75;3.63;;;;;;;-145.67;100.00;66521.78;5082022;28;20036;-91
2023/10/17 01:56:39;;;;;;;9.00;3.28;;;;;;;-145.67;100.00;66521.78;5113342;28;20019;-90
2023/10/17 01:59:08;;;;;;;9.45;3.20;;;;;;;-145.67;100.00;66521.78;5079808;28;20038;-89
2023/10/17 02:01:36;;;;;;;8.57;3.40;;;;;;;-145.67;100.00;66521.78;5096699;28;20034;-90
2023/10/17 02:04:03;;;;;;;8.82;3.13;;;;;;;-145.67;100.00;66521.78;5071335;28;20062;-89
2023/10/17 02:06:33;;;;;;;12.13;3.03;;;;;;;-145.67;100.00;66521.78;5076607;28;20035;-91
2023/10/17 02:09:20;;;;;;;10.90;3.03;;;;;;;-145.67;100.00;66521.78;5076217;28;20047;-90
2023/10/17 02:11:50;;;;;;;10.93;3.28;;;;;;;-145.67;100.00;66521.78;5095004;28;20024;-90
2023/10/17 02:14:16;;;;;;;9.55;4.15;;;;;;;-145.67;100.00;66521.78;5066077;28;20089;-91
2023/10/17 02:16:41;;;;;;;11.50;4.03;;;;;;;-145.67;100.00;66521.78;5095413;28;20028;-90
2023/10/17 02:19:08;;;;;;;9.75;3.90;;;;;;;-145.67;100.00;66521.78;5093617;28;20031;-90
2023/10/17 02:21:40;;;;;;;12.27;3.70;;;;;;;-145.67;100.00;66521.78;5077750;28;20043;-89
2023/10/17 02:24:06;;;;;;;10.23;4.10;;;;;;;-145.67;100.00;66521.78;5080213;28;20031;-91
2023/10/17 02:26:41;;;;;;;11.15;4.35;;;;;;;-145.67;100.00;66521.78;5096842;28;20074;-91
2023/10/17 02:29:23;;;;;;;9.82;4.50;;;;;;;-145.67;100.00;66521.78;5086781;28;20123;-91
2023/10/17 02:31:54;;;;;;;10.57;4.05;;;;;;;-145.67;100.00;66521.78;5078618;28;20020;-90
2023/10/17 02:34:22;;;;;;;12.45;4.03;;;;;;;-145.67;100.00;66521.78;5073979;28;20034;-90
2023/10/17 02:36:52;;;;;;;10.82;4.18;;;;;;;-145.67;100.00;66521.78;5099932;28;20035;-90
2023/10/17 02:39:20;;;;;;;9.85;4.05;;;;;;;-145.67;100.00;66521.78;5080843;28;20028;-91
2023/10/17 02:41:46;;;;;;;12.65;4.57;;;;;;;-145.67;100.00;66521.78;5065193;28;20020;-91
2023/10/17 02:44:18;;;;;;;9.30;4.05;;;;;;;-145.67;100.00;66521.78;5109104;28;20040;-90
2023/10/17 02:46:44;;;;;;;12.45;4.15;;;;;;;-145.67;100.00;66521.78;5077330;28;20024;-91
2023/10/17 02:49:10;;;;;;;8.43;3.80;;;;;;;-145.67;100.00;66521.78;5062272;28;20035;-90
2023/10/17 02:51:36;;;;;;;11.27;3.90;;;;;;;-145.67;100.00;66521.78;5078804;28;20028;-92
2023/10/17 02:54:05;;;;;;;10.57;4.20;;;;;;;-145.67;100.00;66521.78;5077458;28;20031;-90
2023/10/17 02:56:37;;;;;;;12.88;4.10;;;;;;;-145.67;100.00;66521.78;5077565;28;20043;-90
2023/10/17 03:01:30;;;;;;;8.65;3.90;;;;;;;-145.67;100.00;66521.78;5076596;28;20363;-91
2023/10/17 03:04:02;;;;;;;10.88;4.22;;;;;;;-145.67;100.00;66521.78;5076519;28;20549;-90
2023/10/17 03:06:28;;;;;;;13.25;4.85;;;;;;;-145.67;100.00;66521.78;5076372;28;20016;-90
2023/10/17 03:09:01;;;;;;;8.23;3.80;;;;;;;-145.67;100.00;66521.78;5076018;28;20493;-90
2023/10/17 03:11:35;;;;;;;10.90;3.63;;;;;;;-145.67;100.00;66521.78;5060941;28;20027;-90
2023/10/17 03:14:15;;;;;;;9.90;3.78;;;;;;;-145.67;100.00;66521.78;5076803;28;20382;-90
2023/10/17 03:16:43;;;;;;;8.32;3.70;;;;;;;-145.67;100.00;66521.78;5094087;28;20070;-91
2023/10/17 03:19:12;;;;;;;7.97;4.00;;;;;;;-145.67;100.00;66521.78;5076260;28;20386;-89
2023/10/17 03:21:43;;;;;;;7.10;3.83;;;;;;;-145.67;100.00;66521.78;5059782;28;20035;-91
2023/10/17 03:24:09;;;;;;;9.90;4.35;;;;;;;-145.67;100.00;66521.78;5059194;28;20073;-90
2023/10/17 03:26:54;;;;;;;8.10;3.92;;;;;;;-145.67;100.00;66521.78;5060965;28;20035;-91
2023/10/17 03:29:19;;;;;;;7.60;3.95;;;;;;;-145.67;100.00;66521.78;5065270;28;20417;-90
2023/10/17 03:31:53;;;;;;;8.63;3.53;;;;;;;-145.67;100.00;66521.78;5078848;28;20030;-90
2023/10/17 03:34:33;;;;;;;9.30;4.05;;;;;;;-145.67;100.00;66521.78;5063427;28;20024;-90
2023/10/17 03:37:26;;;;;;;13.25;3.95;;;;;;;-145.67;100.00;66521.78;5063965;28;20028;-91
2023/10/17 03:39:53;;;;;;;8.25;3.80;;;;;;;-145.67;100.00;66521.78;5097009;28;20016;-90
2023/10/17 03:42:41;;;;;;;8.50;3.83;;;;;;;-145.67;100.00;66521.78;5063033;28;20047;-90
2023/10/17 03:45:13;;;;;;;7.40;3.80;;;;;;;-145.67;100.00;66521.78;5081943;28;20028;-91
2023/10/17 03:47:53;;;;;;;8.32;4.30;;;;;;;-145.67;100.00;66521.78;5062683;28;20035;-92
2023/10/17 03:50:34;;;;;;;8.30;3.88;;;;;;;-145.67;100.00;66521.78;5059293;28;20024;-90
2023/10/17 03:53:14;;;;;;;6.95;3.42;;;;;;;-145.67;100.00;66521.78;5043859;28;20048;-91
2023/10/17 03:55:48;;;;;;;7.88;3.95;;;;;;;-145.67;100.00;66521.78;5058486;28;20042;-91
2023/10/17 03:59:18;;;;;;;9.95;3.92;;;;;;;-145.67;100.00;66521.78;5076393;28;20059;-90
2023/10/17 04:01:10;;;;;;;10.07;3.63;;;;;;;-145.67;100.00;66521.78;5073161;28;20044;-91
2023/10/17 04:03:36;;;;;;;7.18;3.63;;;;;;;-145.67;100.00;66521.78;5078682;28;20091;-90
2023/10/17 04:08:41;;;;;;;9.73;3.75;;;;;;;-145.67;100.00;66521.78;5081230;28;20539;-90
2023/10/17 04:11:25;;;;;;;;;;;;;;;-145.67;100.00;66521.78;5087082;28;20144;-90
2023/10/17 04:13:53;;;;;;;13.63;4.30;;;;;;;-145.67;100.00;66521.78;5083230;28;19950;-91
2023/10/17 04:16:26;;;;;;;9.60;4.10;;;;;;;-145.67;100.00;66521.78;5083936;28;20102;-91
2023/10/17 04:18:57;;;;;;;16.20;4.90;;;;;;;-145.67;100.00;66521.78;5073320;28;20415;-91
2023/10/17 04:23:55;;;;;;;10.20;4.75;;;;;;;-145.67;100.00;66521.78;5077936;28;20043;-90
2023/10/17 04:26:27;;;;;;;9.95;4.80;;;;;;;-145.67;100.00;66521.78;5061688;28;20042;-91
2023/10/17 04:29:01;;;;;;;12.82;5.38;;;;;;;-145.67;100.00;66521.78;5061449;28;20047;-90
2023/10/17 04:31:29;;;;;;;12.75;4.97;;;;;;;-145.67;100.00;66521.78;5078036;28;20043;-90
2023/10/17 04:33:57;;;;;;;12.75;5.03;;;;;;;-145.67;100.00;66521.78;5063653;28;20442;-91
2023/10/17 04:36:26;;;;;;;9.02;4.65;;;;;;;-145.67;100.00;66521.78;5082681;28;20484;-92
2023/10/17 04:39:11;;;;;;;9.65;4.50;;;;;;;-145.67;100.00;66521.78;5069634;28;20016;-90
2023/10/17 04:44:20;;;;;;;10.90;4.40;;;;;;;-145.67;100.00;66521.78;5067752;28;20028;-90
2023/10/17 04:46:50;;;;;;;8.98;4.70;;;;;;;-145.67;100.00;66521.78;5057795;28;20166;-90
2023/10/17 04:49:18;;;;;;;11.02;5.30;;;;;;;-145.67;100.00;66521.78;5057793;28;20095;-89
2023/10/17 04:51:44;;;;;;;8.88;4.90;;;;;;;-145.67;100.00;66521.78;5040907;28;20124;-89
2023/10/17 04:57:00;;;;;;;12.88;5.25;;;;;;;-145.67;100.00;66521.78;5060246;28;20376;-90
2023/10/17 06:18:31;;;;;;;22.58;9.50;;;;;;;-145.67;100.00;66521.78;5102417;28;20016;-91
2023/10/17 06:21:07;;;;;;;15.05;6.88;;;;;;;-145.67;100.00;66521.78;5075673;28;20073;-89
2023/10/17 06:26:46;;;;;;;20.73;7.45;;;;;;;-145.67;100.00;66521.78;5082899;28;20024;-91
2023/10/17 06:29:44;;;;;;;14.90;6.68;;;;;;;-145.67;100.00;66521.78;5094505;28;20071;-90
2023/10/17 06:31:42;;;;;;;13.90;6.93;;;;;;;-145.67;100.00;66521.78;5095439;28;20059;-90
2023/10/17 06:34:08;;;;;;;16.90;6.80;;;;;;;-145.67;100.00;66521.78;5077638;28;20036;-91
2023/10/17 06:36:39;;;;;;;13.48;7.03;;;;;;;-145.67;100.00;66521.78;5099439;28;20023;-91
2023/10/17 06:39:13;;;;;;;13.23;6.50;;;;;;;-145.67;100.00;66521.78;5099919;28;20012;-91
2023/10/17 06:41:39;;;;;;;16.67;7.50;;;;;;;-145.67;100.00;66521.78;5085498;28;20031;-91
2023/10/17 06:44:06;;;;;;;14.52;6.82;;;;;;;-145.67;100.00;66521.78;5080817;28;20028;-90
2023/10/17 06:46:48;;;;;;;17.58;7.85;;;;;;;-145.67;100.00;66521.78;5085469;28;20024;-90
2023/10/17 06:54:52;;;;;;;12.70;6.43;;;;;;;-145.67;100.00;66521.78;5077823;28;20392;-92
2023/10/17 06:57:23;;;;;;;12.02;6.57;;;;;;;-145.67;100.00;66521.78;5061332;28;20043;-92
2023/10/17 06:59:51;;;;;;;14.13;7.00;;;;;;;-145.67;100.00;66521.78;5059212;28;20055;-91
2023/10/17 07:02:41;;;;;;;17.38;6.78;;;;;;;-145.67;100.00;66521.78;5078664;28;20057;-92
2023/10/17 07:05:09;;;;;;;15.82;7.22;;;;;;;-145.67;100.00;66521.78;5082343;28;20032;-90
2023/10/17 07:07:45;;;;;;;11.38;6.30;;;;;;;-145.67;100.00;66521.78;5062857;28;20043;-89
2023/10/17 07:10:16;;;;;;;11.70;6.22;;;;;;;-145.67;100.00;66521.78;5080543;28;20056;-91
2023/10/17 07:13:05;;;;;;;15.43;6.25;;;;;;;-145.67;100.00;66521.78;5079778;28;20085;-91
2023/10/17 07:15:32;;;;;;;15.50;7.35;;;;;;;-145.67;100.00;66521.78;5079370;28;20036;-92
2023/10/17 07:23:32;;;;;;;14.40;7.15;;;;;;;-145.67;100.00;66521.78;5081977;28;20052;-90
2023/10/17 07:25:57;;;;;;;15.63;7.05;;;;;;;-145.67;100.00;66521.78;5079387;28;20478;-91
2023/10/17 07:28:23;;;;;;;17.05;7.10;;;;;;;-145.67;100.00;66521.78;5079971;28;20035;-92
2023/10/17 07:30:49;;;;;;;12.23;6.72;;;;;;;-145.67;100.00;66521.78;5098080;28;20095;-92
2023/10/17 07:33:18;;;;;;;12.30;6.57;;;;;;;-145.67;100.00;66521.78;5079965;28;20446;-92
2023/10/17 07:35:56;;;;;;;11.38;6.57;;;;;;;-145.67;100.00;66521.78;5063352;28;20059;-92
2023/10/17 07:38:27;;;;;;;11.30;6.45;;;;;;;-145.67;100.00;66521.78;5080187;28;20498;-91
2023/10/17 07:41:09;;;;;;;17.67;6.85;;;;;;;-145.67;100.00;66521.78;5081944;28;20027;-90
2023/10/17 07:43:35;;;;;;;13.57;7.25;;;;;;;-145.67;100.00;66521.78;5082740;28;20017;-91
2023/10/17 07:46:06;;;;;;;13.35;6.20;;;;;;;-145.67;100.00;66521.78;5081724;28;20027;-91
2023/10/17 07:48:32;;;;;;;9.60;5.88;;;;;;;-145.67;100.00;66521.78;5066245;28;20038;-91
2023/10/17 07:50:59;;;;;;;15.20;6.55;;;;;;;-145.67;100.00;66521.78;5097958;28;20024;-92
2023/10/17 07:53:26;;;;;;;8.02;5.40;;;;;;;-145.67;100.00;66521.78;5063291;28;20055;-92
2023/10/17 07:56:02;;;;;;;11.27;5.75;;;;;;;-145.67;100.00;66521.78;5066284;28;20069;-91
2023/10/17 07:58:42;;;;;;;7.50;4.78;;;;;;;-145.67;100.00;66521.78;5079992;28;20036;-93
2023/10/17 08:01:08;;;;;;;9.38;4.32;;;;;;;-145.67;100.00;66521.78;5078318;28;20027;-92
2023/10/17 08:03:39;;;;;;;11.15;3.88;;;;;;;-145.67;100.00;66521.78;5045564;28;20024;-92
2023/10/17 08:06:05;;;;;;;9.60;4.15;;;;;;;-145.67;100.00;66521.78;5062929;28;20024;-92
2023/10/17 08:08:35;;;;;;;7.15;3.80;;;;;;;-145.67;100.00;66521.78;5099063;28;20111;-91
2023/10/17 08:11:26;;;;;;;9.55;3.95;;;;;;;-145.67;100.00;66521.78;5065127;28;20036;-91
2023/10/17 08:13:50;;;;;;;5.47;3.10;;;;;;;-145.67;100.00;66521.78;5083598;28;20111;-92
2023/10/17 08:19:22;;;;;;;7.63;3.05;;;;;;;-145.67;100.00;66521.78;5002848;28;20033;-93
2023/10/17 08:24:26;;;;;;;7.47;3.17;;;;;;;-145.67;100.00;66521.78;5053739;28;20485;-93
2023/10/17 08:27:12;;;;;;;6.93;3.00;;;;;;;-145.67;100.00;66521.78;5063290;28;20445;-94
2023/10/17 08:29:38;;;;;;;4.90;2.85;;;;;;;-145.67;100.00;66521.78;5082128;28;20107;-92
2023/10/17 08:32:55;;;;;;;4.63;2.13;;;;;;;-145.67;100.00;66521.78;5078698;28;20027;-94
2023/10/17 08:34:58;;;;;;;5.65;2.47;;;;;;;-145.67;100.00;66521.78;5076342;28;20046;-92
2023/10/17 08:37:32;;;;;;;5.00;2.20;;;;;;;-145.67;100.00;66521.78;5078528;28;20024;-92
2023/10/17 08:40:29;;;;;;;5.38;2.42;;;;;;;-145.67;100.00;66521.78;5080356;28;20020;-93
2023/10/17 08:42:52;;;;;;;7.38;2.55;;;;;;;-145.67;100.00;66521.78;5081673;28;20020;-93
2023/10/17 08:45:19;;;;;;;7.55;2.90;;;;;;;-145.67;100.00;66521.78;5080125;28;20028;-92
2023/10/17 08:47:46;;;;;;;6.68;2.85;;;;;;;-145.67;100.00;66521.78;5079083;28;20024;-93
2023/10/17 08:50:15;;;;;;;6.05;3.20;;;;;;;-145.67;100.00;66521.78;5061695;28;20020;-93
2023/10/17 08:52:43;;;;;;;6.70;2.60;;;;;;;-145.67;100.00;66521.78;5061700;28;20501;-92
2023/10/17 08:55:15;;;;;;;4.40;2.70;;;;;;;-145.67;100.00;66521.78;5078247;28;20036;-92
2023/10/17 08:57:41;;;;;;;6.20;2.45;;;;;;;-145.67;100.00;66521.78;5078249;28;20027;-92
2023/10/17 09:02:43;;;;;;;8.27;2.40;;;;;;;-145.67;100.00;66521.78;5077471;28;20086;-93
2023/10/17 09:05:29;;;;;;;7.78;2.00;;;;;;;-145.67;100.00;66521.78;5077243;28;20034;-92
2023/10/17 09:08:02;;;;;;;7.75;2.10;;;;;;;-145.67;100.00;66521.78;5077464;28;20035;-93
2023/10/17 09:10:39;;;;;;;4.40;2.13;;;;;;;-145.67;100.00;66521.78;5059997;28;20071;-92
2023/10/17 09:16:08;;;;;;;4.75;2.40;;;;;;;-145.67;100.00;66521.78;5080132;28;20020;-94
2023/10/17 09:18:42;;;;;;;5.85;2.67;;;;;;;-145.67;100.00;66521.78;5043826;28;20086;-91
2023/10/17 09:21:13;;;;;;;4.70;2.60;;;;;;;-145.67;100.00;66521.78;5027239;28;20093;-92
2023/10/17 09:23:41;;;;;;;6.90;2.53;;;;;;;-145.67;100.00;66521.78;5061757;28;20020;-93
2023/10/17 09:26:15;;;;;;;7.28;2.60;;;;;;;-145.67;100.00;66521.78;5069539;28;20031;-92
2023/10/17 09:28:42;;;;;;;6.05;2.60;;;;;;;-145.67;100.00;66521.78;5078094;28;20031;-94
2023/10/17 09:31:09;;;;;;;5.57;2.47;;;;;;;-145.67;100.00;66521.78;5079799;28;20060;-93
2023/10/17 09:33:45;;;;;;;8.23;2.20;;;;;;;-145.67;100.00;66521.78;5070731;28;20117;-93
2023/10/17 09:36:17;;;;;;;5.32;2.30;;;;;;;-145.67;100.00;66521.78;5070265;28;20016;-92
2023/10/17 09:38:49;;;;;;;6.45;2.67;;;;;;;-145.67;100.00;66521.78;5044593;28;20028;-93
2023/10/17 09:41:20;;;;;;;;;;;;;;;-145.67;100.00;66521.78;5070411;28;20466;-94
2023/10/17 09:43:51;;;;;;;4.72;2.03;;;;;;;-145.67;100.00;66521.78;5057897;28;19916;-93
2023/10/17 09:46:26;;;;;;;7.33;2.20;;;;;;;-145.67;100.00;66521.78;5057073;28;20036;-92
2023/10/17 09:48:52;;;;;;;4.50;1.63;;;;;;;-145.67;100.00;66521.78;5041077;28;20478;-92
2023/10/17 09:51:25;;;;;;;7.10;1.48;;;;;;;-145.67;100.00;66521.78;5076386;28;20036;-92
2023/10/17 09:54:00;;;;;;;3.97;1.58;;;;;;;-145.67;100.00;66521.78;5058041;28;20091;-92
2023/10/17 09:56:36;;;;;;;5.60;1.25;;;;;;;-145.67;100.00;66521.78;5096593;28;20084;-90
2023/10/17 09:59:06;;;;;;;4.88;1.70;;;;;;;-145.67;100.00;66521.78;5083418;28;20024;-92
2023/10/17 10:01:32;;;;;;;5.10;1.80;;;;;;;-145.67;100.00;66521.78;5078774;28;20032;-90
2023/10/17 10:04:01;;;;;;;4.57;1.33;;;;;;;-145.67;100.00;66521.78;5095820;28;20075;-91
2023/10/17 10:06:36;;;;;;;4.22;1.10;;;;;;;-145.67;100.00;66521.78;5060894;28;20404;-92
2023/10/17 10:09:05;;;;;;;3.00;1.20;;;;;;;-145.67;100.00;66521.78;5061150;28;20354;-92
2023/10/17 10:12:01;;;;;;;6.22;1.30;;;;;;;-145.67;100.00;66521.78;5076576;28;20028;-93
2023/10/17 10:14:27;;;;;;;5.25;1.10;;;;;;;-145.67;100.00;66521.78;5058359;28;20040;-91
2023/10/17 10:16:54;;;;;;;4.20;1.17;;;;;;;-145.67;100.00;66521.78;5077917;28;20370;-91
2023/10/17 10:19:21;;;;;;;3.65;1.25;;;;;;;-145.67;100.00;66521.78;5077022;28;20012;-92
2023/10/17 10:22:00;;;;;;;5.68;1.15;;;;;;;-145.67;100.00;66521.78;5060560;28;20081;-92
2023/10/17 10:24:27;;;;;;;5.05;1.20;;;;;;;-145.67;100.00;66521.78;5076344;28;20038;-90
2023/10/17 10:27:15;;;;;;;4.50;1.20;;;;;;;-145.67;100.00;66521.78;5076636;28;20063;-92
2023/10/17 10:29:52;;;;;;;5.30;1.00;;;;;;;-145.67;100.00;66521.78;5076316;28;20047;-92
2023/10/17 10:32:35;;;;;;;5.40;1.10;;;;;;;-145.67;100.00;66521.78;5076035;28;20390;-92
2023/10/17 10:35:07;;;;;;;3.90;1.10;;;;;;;-145.67;100.00;66521.78;5077905;28;20400;-93
2023/10/17 10:38:02;;;;;;;8.73;1.30;;;;;;;-145.67;100.00;66521.78;5080915;28;20024;-92
2023/10/17 10:40:32;;;;;;;2.92;0.77;;;;;;;-145.67;100.00;66521.78;5042424;28;20032;-91
2023/10/17 10:43:01;;;;;;;6.32;1.05;;;;;;;-145.67;100.00;66521.78;5064296;28;20020;-93
2023/10/17 10:45:42;;;;;;;4.40;1.40;;;;;;;-145.67;100.00;66521.78;5063638;28;20038;-93
2023/10/17 10:48:14;;;;;;;2.90;0.98;;;;;;;-145.67;100.00;66521.78;5081881;28;20028;-94
2023/10/17 10:50:40;;;;;;;;;;;;;;;-145.67;100.00;66521.78;5081556;28;20121;-91
2023/10/17 10:53:19;;;;;;;5.20;0.80;;;;;;;-145.67;100.00;66521.78;5083948;28;20320;-94
2023/10/17 10:59:14;;;;;;;3.10;1.13;;;;;;;-145.67;100.00;66521.78;5107945;28;20119;-90
2023/10/17 11:01:47;;;;;;;5.57;0.90;;;;;;;-145.67;100.00;66521.78;5062159;28;20112;-91
2023/10/17 11:04:14;;;;;;;4.32;0.90;;;;;;;-145.67;100.00;66521.78;5059399;28;20024;-90
2023/10/17 11:06:51;;;;;;;2.10;0.70;;;;;;;-145.67;100.00;66521.78;5071933;28;20107;-92
2023/10/17 11:09:34;;;;;;;3.80;0.90;;;;;;;-145.67;100.00;66521.78;5047143;28;20056;-93
2023/10/17 11:12:03;;;;;;;3.33;0.88;;;;;;;-145.67;100.00;66521.78;5046356;28;20112;-93
2023/10/17 11:14:31;;;;;;;5.18;0.95;;;;;;;-145.67;100.00;66521.78;5063672;28;20463;-94
2023/10/17 11:16:57;;;;;;;3.88;0.85;;;;;;;-145.67;100.00;66521.78;5043463;28;20039;-93
2023/10/17 11:20:12;;;;;;;3.65;0.88;;;;;;;-145.67;100.00;66521.78;5045987;28;20062;-94
2023/10/17 12:07:05;;;;;;;2.35;0.80;;;;;;;-145.67;100.00;66521.78;6020933;22;21140;-92
2023/10/17 12:09:40;;;;;;;3.38;0.90;;;;;;;-145.67;100.00;66521.78;5028131;28;20052;-92
2023/10/17 12:12:06;;;;;;;3.50;0.90;;;;;;;-145.67;100.00;66521.78;5044083;28;20025;-92
2023/10/17 12:14:58;;;;;;;3.40;1.13;;;;;;;-145.67;100.00;66521.78;5043450;28;20063;-94
2023/10/17 12:17:32;;;;;;;5.00;1.15;;;;;;;-145.67;100.00;66521.78;5045388;28;20028;-92
2023/10/17 12:20:04;;;;;;;3.60;1.10;;;;;;;-145.67;100.00;66521.78;5064820;28;20056;-93
2023/10/17 12:22:52;;;;;;;4.18;0.90;;;;;;;-145.67;100.00;66521.78;5028255;28;20024;-92
2023/10/17 12:36:19;;;;;;;4.05;1.15;;;;;;;-145.67;100.00;66521.78;4959547;28;20037;-95
2023/10/17 12:39:14;;;;;;;3.50;0.88;;;;;;;-145.67;100.00;66521.78;4940601;28;20034;-93
2023/10/17 12:41:45;;;;;;;;;;;;;;;-145.67;100.00;66521.78;5061732;28;20039;-93
2023/10/17 12:44:18;;;;;;;2.47;1.30;;;;;;;-145.67;100.00;66521.78;5042987;28;19939;-92
2023/10/17 12:46:59;;;;;;;4.72;1.30;;;;;;;-145.67;100.00;66521.78;5059242;28;20032;-94
2023/10/17 18:08:27;;;;;;;8.63;2.55;;;;;;;-145.67;100.00;66521.78;5088122;28;20414;-92
2023/10/17 18:10:53;;;;;;;9.18;2.67;;;;;;;-145.67;100.00;66521.78;5041640;28;20044;-90
2023/10/17 18:13:21;;;;;;;9.77;2.47;;;;;;;-145.67;100.00;66521.78;5040836;28;20024;-90
2023/10/17 18:15:47;;;;;;;6.35;2.40;;;;;;;-145.67;100.00;66521.78;5058209;28;20032;-89
2023/10/17 18:18:14;;;;;;;9.23;2.88;;;;;;;-145.67;100.00;66521.78;5041489;28;20056;-92
2023/10/17 18:20:40;;;;;;;6.38;2.50;;;;;;;-145.67;100.00;66521.78;5042133;28;20067;-91
2023/10/17 18:23:06;;;;;;;6.63;2.50;;;;;;;-145.67;100.00;66521.78;5057767;28;20024;-92
2023/10/17 18:25:38;;;;;;;7.55;2.60;;;;;;;-145.67;100.00;66521.78;5041837;28;20451;-91
2023/10/17 18:28:03;;;;;;;7.03;2.80;;;;;;;-145.67;100.00;66521.78;5058574;28;20036;-91
2023/10/17 18:30:32;;;;;;;9.05;2.50;;;;;;;-145.67;100.00;66521.78;5041450;28;20089;-91
2023/10/17 18:32:58;;;;;;;6.10;2.05;;;;;;;-145.67;100.00;66521.78;5024673;28;20583;-90
2023/10/17 18:35:23;;;;;;;6.40;2.45;;;;;;;-145.67;100.00;66521.78;5037413;28;20107;-91
2023/10/17 18:37:49;;;;;;;9.70;2.30;;;;;;;-145.67;100.00;66521.78;5037459;28;20047;-90
2023/10/17 18:40:15;;;;;;;12.48;2.70;;;;;;;-145.67;100.00;66521.78;5067740;28;20060;-90
2023/10/17 18:42:41;;;;;;;6.15;2.13;;;;;;;-145.67;100.00;66521.78;5022054;28;20020;-91
2023/10/17 18:45:10;;;;;;;5.30;2.38;;;;;;;-145.67;100.00;66521.78;5041857;28;22070;-91
2023/10/17 18:47:36;;;;;;;7.72;2.22;;;;;;;-145.67;100.00;66521.78;5046625;28;20025;-92
2023/10/17 18:50:02;;;;;;;5.78;2.33;;;;;;;-145.67;100.00;66521.78;5039718;28;20029;-92
2023/10/17 18:52:28;;;;;;;6.22;2.58;;;;;;;-145.67;100.00;66521.78;5066506;28;20048;-91
2023/10/17 18:54:54;;;;;;;7.55;2.67;;;;;;;-145.67;100.00;66521.78;5081872;28;20024;-91
2023/10/17 18:57:20;;;;;;;7.85;2.88;;;;;;;-145.67;100.00;66521.78;5065960;28;20041;-91
2023/10/17 18:59:46;;;;;;;7.07;2.72;;;;;;;-145.67;100.00;66521.78;5081495;28;20021;-91
2023/10/17 19:02:12;;;;;;;6.28;2.53;;;;;;;-145.67;100.00;66521.78;5058233;28;20037;-89
2023/10/17 19:04:39;;;;;;;6.40;2.33;;;;;;;-145.67;100.00;66521.78;5039734;28;20392;-89
2023/10/17 19:07:06;;;;;;;5.80;2.60;;;;;;;-145.67;100.00;66521.78;5067052;28;20040;-91
2023/10/17 19:09:31;;;;;;;7.40;2.70;;;;;;;-145.67;100.00;66521.78;5060142;28;20024;-90
2023/10/17 19:11:57;;;;;;;9.57;2.72;;;;;;;-145.67;100.00;66521.78;5043645;28;20043;-90
2023/10/17 19:14:23;;;;;;;8.88;2.80;;;;;;;-145.67;100.00;66521.78;5042737;28;20035;-91
2023/10/17 19:16:48;;;;;;;4.32;2.60;;;;;;;-145.67;100.00;66521.78;5054440;28;20185;-89
2023/10/17 19:19:14;;;;;;;6.45;2.70;;;;;;;-145.67;100.00;66521.78;5059447;28;20029;-90
2023/10/17 19:21:40;;;;;;;8.43;2.90;;;;;;;-145.67;100.00;66521.78;5059603;28;20156;-90
2023/10/17 19:24:06;;;;;;;5.25;2.53;;;;;;;-145.67;100.00;66521.78;5077306;28;20028;-91
2023/10/17 19:26:35;;;;;;;5.10;2.83;;;;;;;-145.67;100.00;66521.78;5042430;28;20040;-90
2023/10/17 19:29:00;;;;;;;4.47;2.90;;;;;;;-145.67;100.00;66521.78;5077196;28;20043;-91
2023/10/17 19:31:27;;;;;;;8.80;2.80;;;;;;;-145.67;100.00;66521.78;5082300;28;20110;-91
2023/10/17 19:33:54;;;;;;;7.57;3.78;;;;;;;-145.67;100.00;66521.78;5104667;28;20035;-90
2023/10/17 19:36:21;;;;;;;6.32;3.00;;;;;;;-145.67;100.00;66521.78;5118773;28;20029;-91
2023/10/17 19:38:47;;;;;;;8.10;3.40;;;;;;;-145.67;100.00;66521.78;5105185;28;20047;-90
2023/10/17 19:41:13;;;;;;;6.68;2.80;;;;;;;-145.67;100.00;66521.78;5105695;28;20039;-91
2023/10/17 19:43:40;;;;;;;8.32;2.67;;;;;;;-145.67;100.00;66521.78;5105762;28;20095;-90
2023/10/17 19:46:06;;;;;;;6.53;2.80;;;;;;;-145.67;100.00;66521.78;5104028;28;20065;-90
2023/10/17 19:48:32;;;;;;;5.97;2.65;;;;;;;-145.67;100.00;66521.78;5115019;28;20036;-90